sensor_id;sensor_type;location;lat;lon;timestamp;P1;durP1;ratioP1;P2;durP2;ratioP2
42478;SDS011;28110;47.080;9.476;2023-12-29T00:01:14;3.13;;;1.30;;
42478;SDS011;28110;47.080;9.476;2023-12-29T00:03:40;3.17;;;1.30;;
42478;SDS011;28110;47.080;9.476;2023-12-29T00:06:06;2.27;;;1.23;;
42478;SDS011;28110;47.080;9.476;2023-12-29T00:08:31;2.78;;;1.52;;
42478;SDS011;28110;47.080;9.476;2023-12-29T00:10:57;2.60;;;1.20;;
42478;SDS011;28110;47.080;9.476;2023-12-29T00:13:23;2.90;;;1.27;;
42478;SDS011;28110;47.080;9.476;2023-12-29T00:15:52;3.10;;;1.43;;
42478;SDS011;28110;47.080;9.476;2023-12-29T00:18:18;2.03;;;1.13;;
42478;SDS011;28110;47.080;9.476;2023-12-29T00:20:44;5.68;;;1.20;;
42478;SDS011;28110;47.080;9.476;2023-12-29T00:23:09;2.43;;;1.33;;
42478;SDS011;28110;47.080;9.476;2023-12-29T00:25:35;2.20;;;1.07;;
42478;SDS011;28110;47.080;9.476;2023-12-29T00:28:02;4.45;;;1.30;;
42478;SDS011;28110;47.080;9.476;2023-12-29T00:30:28;3.03;;;1.10;;
42478;SDS011;28110;47.080;9.476;2023-12-29T00:32:54;1.75;;;1.00;;
42478;SDS011;28110;47.080;9.476;2023-12-29T00:35:20;1.70;;;0.90;;
42478;SDS011;28110;47.080;9.476;2023-12-29T00:37:46;2.47;;;1.20;;
42478;SDS011;28110;47.080;9.476;2023-12-29T00:40:11;3.03;;;1.10;;
42478;SDS011;28110;47.080;9.476;2023-12-29T00:42:37;2.20;;;1.10;;
42478;SDS011;28110;47.080;9.476;2023-12-29T00:45:03;1.65;;;1.00;;
42478;SDS011;28110;47.080;9.476;2023-12-29T00:47:29;1.90;;;1.00;;
42478;SDS011;28110;47.080;9.476;2023-12-29T00:49:55;2.20;;;1.00;;
42478;SDS011;28110;47.080;9.476;2023-12-29T00:52:21;2.03;;;1.10;;
42478;SDS011;28110;47.080;9.476;2023-12-29T00:54:46;2.50;;;1.30;;
42478;SDS011;28110;47.080;9.476;2023-12-29T00:57:12;1.87;;;1.00;;
42478;SDS011;28110;47.080;9.476;2023-12-29T00:59:37;2.87;;;0.90;;
42478;SDS011;28110;47.080;9.476;2023-12-29T01:02:04;2.67;;;0.80;;
42478;SDS011;28110;47.080;9.476;2023-12-29T01:04:30;1.40;;;0.80;;
42478;SDS011;28110;47.080;9.476;2023-12-29T01:06:56;1.50;;;0.93;;
42478;SDS011;28110;47.080;9.476;2023-12-29T01:09:21;1.73;;;1.10;;
42478;SDS011;28110;47.080;9.476;2023-12-29T01:11:47;1.80;;;1.08;;
42478;SDS011;28110;47.080;9.476;2023-12-29T01:14:13;2.50;;;0.97;;
42478;SDS011;28110;47.080;9.476;2023-12-29T01:16:38;3.92;;;1.13;;
42478;SDS011;28110;47.080;9.476;2023-12-29T01:19:05;1.63;;;0.80;;
42478;SDS011;28110;47.080;9.476;2023-12-29T01:21:31;1.73;;;0.80;;
42478;SDS011;28110;47.080;9.476;2023-12-29T01:23:59;2.90;;;1.05;;
42478;SDS011;28110;47.080;9.476;2023-12-29T01:26:26;2.70;;;0.85;;
42478;SDS011;28110;47.080;9.476;2023-12-29T01:28:51;1.37;;;0.80;;
42478;SDS011;28110;47.080;9.476;2023-12-29T01:31:17;1.35;;;0.77;;
42478;SDS011;28110;47.080;9.476;2023-12-29T01:33:42;1.47;;;0.80;;
42478;SDS011;28110;47.080;9.476;2023-12-29T01:36:08;1.50;;;0.90;;
42478;SDS011;28110;47.080;9.476;2023-12-29T01:38:33;1.15;;;0.73;;
42478;SDS011;28110;47.080;9.476;2023-12-29T01:40:59;1.87;;;0.73;;
42478;SDS011;28110;47.080;9.476;2023-12-29T01:43:25;1.07;;;0.60;;
42478;SDS011;28110;47.080;9.476;2023-12-29T01:45:50;1.42;;;0.70;;
42478;SDS011;28110;47.080;9.476;2023-12-29T01:48:16;3.50;;;0.80;;
42478;SDS011;28110;47.080;9.476;2023-12-29T01:50:41;2.03;;;0.80;;
42478;SDS011;28110;47.080;9.476;2023-12-29T01:53:08;1.27;;;0.77;;
42478;SDS011;28110;47.080;9.476;2023-12-29T01:55:34;2.03;;;0.83;;
42478;SDS011;28110;47.080;9.476;2023-12-29T01:57:59;1.60;;;0.75;;
42478;SDS011;28110;47.080;9.476;2023-12-29T02:00:26;1.73;;;0.63;;
42478;SDS011;28110;47.080;9.476;2023-12-29T02:02:52;1.80;;;0.97;;
42478;SDS011;28110;47.080;9.476;2023-12-29T02:05:18;2.97;;;0.80;;
42478;SDS011;28110;47.080;9.476;2023-12-29T02:07:47;1.30;;;0.70;;
42478;SDS011;28110;47.080;9.476;2023-12-29T02:10:16;2.47;;;1.10;;
42478;SDS011;28110;47.080;9.476;2023-12-29T02:12:43;1.63;;;0.75;;
42478;SDS011;28110;47.080;9.476;2023-12-29T02:15:12;2.22;;;0.80;;
42478;SDS011;28110;47.080;9.476;2023-12-29T02:17:39;1.05;;;0.70;;
42478;SDS011;28110;47.080;9.476;2023-12-29T02:20:09;2.43;;;1.03;;
42478;SDS011;28110;47.080;9.476;2023-12-29T02:22:36;1.42;;;0.77;;
42478;SDS011;28110;47.080;9.476;2023-12-29T02:25:02;1.77;;;0.90;;
42478;SDS011;28110;47.080;9.476;2023-12-29T02:27:34;1.30;;;0.93;;
42478;SDS011;28110;47.080;9.476;2023-12-29T02:30:29;1.00;;;0.70;;
42478;SDS011;28110;47.080;9.476;2023-12-29T02:33:07;1.40;;;0.90;;
42478;SDS011;28110;47.080;9.476;2023-12-29T02:35:37;1.98;;;0.80;;
42478;SDS011;28110;47.080;9.476;2023-12-29T02:38:06;0.77;;;0.50;;
42478;SDS011;28110;47.080;9.476;2023-12-29T02:40:32;4.57;;;0.70;;
42478;SDS011;28110;47.080;9.476;2023-12-29T02:42:57;0.80;;;0.60;;
42478;SDS011;28110;47.080;9.476;2023-12-29T02:45:23;0.97;;;0.57;;
42478;SDS011;28110;47.080;9.476;2023-12-29T02:47:49;2.20;;;0.70;;
42478;SDS011;28110;47.080;9.476;2023-12-29T02:50:14;1.27;;;0.63;;
42478;SDS011;28110;47.080;9.476;2023-12-29T02:52:40;0.82;;;0.50;;
42478;SDS011;28110;47.080;9.476;2023-12-29T02:55:06;1.27;;;0.70;;
42478;SDS011;28110;47.080;9.476;2023-12-29T02:57:32;2.75;;;0.70;;
42478;SDS011;28110;47.080;9.476;2023-12-29T02:59:58;0.93;;;0.70;;
42478;SDS011;28110;47.080;9.476;2023-12-29T03:02:24;2.30;;;0.80;;
42478;SDS011;28110;47.080;9.476;2023-12-29T03:04:49;1.77;;;0.68;;
42478;SDS011;28110;47.080;9.476;2023-12-29T03:07:15;1.43;;;0.77;;
42478;SDS011;28110;47.080;9.476;2023-12-29T03:09:41;1.23;;;0.63;;
42478;SDS011;28110;47.080;9.476;2023-12-29T03:12:06;3.47;;;0.60;;
42478;SDS011;28110;47.080;9.476;2023-12-29T03:14:32;1.10;;;0.70;;
42478;SDS011;28110;47.080;9.476;2023-12-29T03:16:58;1.17;;;0.60;;
42478;SDS011;28110;47.080;9.476;2023-12-29T03:19:23;1.50;;;0.85;;
42478;SDS011;28110;47.080;9.476;2023-12-29T03:21:49;1.07;;;0.70;;
42478;SDS011;28110;47.080;9.476;2023-12-29T03:24:15;1.90;;;0.70;;
42478;SDS011;28110;47.080;9.476;2023-12-29T03:26:41;4.78;;;0.95;;
42478;SDS011;28110;47.080;9.476;2023-12-29T03:29:07;0.90;;;0.70;;
42478;SDS011;28110;47.080;9.476;2023-12-29T03:31:33;1.17;;;0.70;;
42478;SDS011;28110;47.080;9.476;2023-12-29T03:33:58;2.75;;;0.77;;
42478;SDS011;28110;47.080;9.476;2023-12-29T03:36:24;2.17;;;0.80;;
42478;SDS011;28110;47.080;9.476;2023-12-29T03:38:49;1.10;;;0.70;;
42478;SDS011;28110;47.080;9.476;2023-12-29T03:41:15;1.45;;;0.50;;
42478;SDS011;28110;47.080;9.476;2023-12-29T03:43:40;2.00;;;0.70;;
42478;SDS011;28110;47.080;9.476;2023-12-29T03:46:18;0.63;;;0.60;;
42478;SDS011;28110;47.080;9.476;2023-12-29T03:48:45;1.38;;;0.65;;
42478;SDS011;28110;47.080;9.476;2023-12-29T03:51:11;1.60;;;0.80;;
42478;SDS011;28110;47.080;9.476;2023-12-29T03:53:37;4.20;;;0.80;;
42478;SDS011;28110;47.080;9.476;2023-12-29T03:56:09;1.73;;;0.65;;
42478;SDS011;28110;47.080;9.476;2023-12-29T03:58:38;1.05;;;0.57;;
42478;SDS011;28110;47.080;9.476;2023-12-29T04:01:04;0.93;;;0.57;;
42478;SDS011;28110;47.080;9.476;2023-12-29T04:03:35;0.95;;;0.60;;
42478;SDS011;28110;47.080;9.476;2023-12-29T04:06:01;1.90;;;0.57;;
42478;SDS011;28110;47.080;9.476;2023-12-29T04:08:26;1.08;;;0.63;;
42478;SDS011;28110;47.080;9.476;2023-12-29T04:10:52;1.30;;;0.70;;
42478;SDS011;28110;47.080;9.476;2023-12-29T04:13:17;1.40;;;0.70;;
42478;SDS011;28110;47.080;9.476;2023-12-29T04:15:43;1.38;;;0.77;;
42478;SDS011;28110;47.080;9.476;2023-12-29T04:18:09;1.67;;;0.60;;
42478;SDS011;28110;47.080;9.476;2023-12-29T04:20:34;1.20;;;0.60;;
42478;SDS011;28110;47.080;9.476;2023-12-29T04:23:00;1.20;;;0.63;;
42478;SDS011;28110;47.080;9.476;2023-12-29T04:25:25;1.88;;;0.50;;
42478;SDS011;28110;47.080;9.476;2023-12-29T04:27:51;1.27;;;0.60;;
42478;SDS011;28110;47.080;9.476;2023-12-29T04:30:16;0.95;;;0.60;;
42478;SDS011;28110;47.080;9.476;2023-12-29T04:32:42;1.27;;;0.90;;
42478;SDS011;28110;47.080;9.476;2023-12-29T04:35:07;1.23;;;0.73;;
42478;SDS011;28110;47.080;9.476;2023-12-29T04:37:37;2.10;;;0.73;;
42478;SDS011;28110;47.080;9.476;2023-12-29T04:40:02;1.67;;;0.83;;
42478;SDS011;28110;47.080;9.476;2023-12-29T04:42:28;2.15;;;1.02;;
42478;SDS011;28110;47.080;9.476;2023-12-29T04:44:53;1.23;;;0.80;;
42478;SDS011;28110;47.080;9.476;2023-12-29T04:47:19;2.90;;;1.20;;
42478;SDS011;28110;47.080;9.476;2023-12-29T04:49:44;2.70;;;1.00;;
42478;SDS011;28110;47.080;9.476;2023-12-29T04:52:10;2.73;;;0.90;;
42478;SDS011;28110;47.080;9.476;2023-12-29T04:54:35;2.28;;;1.02;;
42478;SDS011;28110;47.080;9.476;2023-12-29T04:57:01;2.90;;;1.10;;
42478;SDS011;28110;47.080;9.476;2023-12-29T04:59:27;1.80;;;0.90;;
42478;SDS011;28110;47.080;9.476;2023-12-29T05:01:52;4.10;;;1.10;;
42478;SDS011;28110;47.080;9.476;2023-12-29T05:04:18;3.45;;;1.23;;
42478;SDS011;28110;47.080;9.476;2023-12-29T05:06:43;2.93;;;1.40;;
42478;SDS011;28110;47.080;9.476;2023-12-29T05:09:09;2.65;;;0.98;;
42478;SDS011;28110;47.080;9.476;2023-12-29T05:11:34;2.60;;;1.00;;
42478;SDS011;28110;47.080;9.476;2023-12-29T05:14:00;2.03;;;1.03;;
42478;SDS011;28110;47.080;9.476;2023-12-29T05:16:25;2.07;;;1.10;;
42478;SDS011;28110;47.080;9.476;2023-12-29T05:18:51;1.35;;;0.82;;
42478;SDS011;28110;47.080;9.476;2023-12-29T05:21:17;3.87;;;1.00;;
42478;SDS011;28110;47.080;9.476;2023-12-29T05:23:43;1.48;;;0.90;;
42478;SDS011;28110;47.080;9.476;2023-12-29T05:26:10;1.98;;;0.90;;
42478;SDS011;28110;47.080;9.476;2023-12-29T05:28:36;4.60;;;1.00;;
42478;SDS011;28110;47.080;9.476;2023-12-29T05:31:02;4.40;;;0.97;;
42478;SDS011;28110;47.080;9.476;2023-12-29T05:33:31;1.15;;;0.73;;
42478;SDS011;28110;47.080;9.476;2023-12-29T05:35:57;1.85;;;0.80;;
42478;SDS011;28110;47.080;9.476;2023-12-29T05:38:23;2.08;;;0.98;;
42478;SDS011;28110;47.080;9.476;2023-12-29T05:40:49;1.73;;;0.90;;
42478;SDS011;28110;47.080;9.476;2023-12-29T05:43:15;1.95;;;0.90;;
42478;SDS011;28110;47.080;9.476;2023-12-29T05:45:41;0.90;;;0.60;;
42478;SDS011;28110;47.080;9.476;2023-12-29T05:48:07;1.93;;;0.90;;
42478;SDS011;28110;47.080;9.476;2023-12-29T05:50:33;5.68;;;2.00;;
42478;SDS011;28110;47.080;9.476;2023-12-29T05:52:58;3.10;;;1.40;;
42478;SDS011;28110;47.080;9.476;2023-12-29T05:55:24;2.25;;;0.95;;
42478;SDS011;28110;47.080;9.476;2023-12-29T05:57:49;2.33;;;0.73;;
42478;SDS011;28110;47.080;9.476;2023-12-29T06:00:15;4.43;;;0.90;;
42478;SDS011;28110;47.080;9.476;2023-12-29T06:02:41;1.17;;;0.70;;
42478;SDS011;28110;47.080;9.476;2023-12-29T06:05:08;1.52;;;0.73;;
42478;SDS011;28110;47.080;9.476;2023-12-29T06:07:35;1.38;;;0.70;;
42478;SDS011;28110;47.080;9.476;2023-12-29T06:10:01;2.00;;;0.70;;
42478;SDS011;28110;47.080;9.476;2023-12-29T06:12:27;1.63;;;0.85;;
42478;SDS011;28110;47.080;9.476;2023-12-29T06:14:53;1.33;;;0.70;;
42478;SDS011;28110;47.080;9.476;2023-12-29T06:17:18;2.70;;;0.97;;
42478;SDS011;28110;47.080;9.476;2023-12-29T06:19:44;1.53;;;1.10;;
42478;SDS011;28110;47.080;9.476;2023-12-29T06:22:10;7.35;;;3.65;;
42478;SDS011;28110;47.080;9.476;2023-12-29T06:24:37;6.33;;;2.93;;
42478;SDS011;28110;47.080;9.476;2023-12-29T06:27:03;4.22;;;1.67;;
42478;SDS011;28110;47.080;9.476;2023-12-29T06:29:28;4.63;;;2.00;;
42478;SDS011;28110;47.080;9.476;2023-12-29T06:31:54;6.17;;;2.70;;
42478;SDS011;28110;47.080;9.476;2023-12-29T06:34:19;3.25;;;1.25;;
42478;SDS011;28110;47.080;9.476;2023-12-29T06:36:45;4.78;;;1.10;;
42478;SDS011;28110;47.080;9.476;2023-12-29T06:39:11;1.67;;;1.07;;
42478;SDS011;28110;47.080;9.476;2023-12-29T06:41:36;3.05;;;1.60;;
42478;SDS011;28110;47.080;9.476;2023-12-29T06:44:02;2.42;;;0.90;;
42478;SDS011;28110;47.080;9.476;2023-12-29T06:46:27;1.83;;;0.90;;
42478;SDS011;28110;47.080;9.476;2023-12-29T06:48:53;0.98;;;0.90;;
42478;SDS011;28110;47.080;9.476;2023-12-29T06:51:19;3.03;;;1.10;;
42478;SDS011;28110;47.080;9.476;2023-12-29T06:53:45;1.95;;;0.90;;
42478;SDS011;28110;47.080;9.476;2023-12-29T06:56:13;4.97;;;0.97;;
42478;SDS011;28110;47.080;9.476;2023-12-29T06:58:42;2.55;;;0.65;;
42478;SDS011;28110;47.080;9.476;2023-12-29T07:01:08;2.28;;;0.70;;
42478;SDS011;28110;47.080;9.476;2023-12-29T07:03:33;3.90;;;0.60;;
42478;SDS011;28110;47.080;9.476;2023-12-29T07:06:02;4.18;;;1.50;;
42478;SDS011;28110;47.080;9.476;2023-12-29T07:08:28;6.88;;;2.30;;
42478;SDS011;28110;47.080;9.476;2023-12-29T07:10:53;8.95;;;3.17;;
42478;SDS011;28110;47.080;9.476;2023-12-29T07:13:19;2.90;;;1.30;;
42478;SDS011;28110;47.080;9.476;2023-12-29T07:15:46;2.33;;;0.70;;
42478;SDS011;28110;47.080;9.476;2023-12-29T07:18:12;2.50;;;0.60;;
42478;SDS011;28110;47.080;9.476;2023-12-29T07:20:37;2.08;;;0.77;;
42478;SDS011;28110;47.080;9.476;2023-12-29T07:23:03;1.25;;;0.60;;
42478;SDS011;28110;47.080;9.476;2023-12-29T07:25:28;1.13;;;0.60;;
42478;SDS011;28110;47.080;9.476;2023-12-29T07:27:54;1.13;;;0.65;;
42478;SDS011;28110;47.080;9.476;2023-12-29T07:30:19;1.03;;;0.60;;
42478;SDS011;28110;47.080;9.476;2023-12-29T07:32:45;1.13;;;0.60;;
42478;SDS011;28110;47.080;9.476;2023-12-29T07:35:11;3.15;;;0.80;;
42478;SDS011;28110;47.080;9.476;2023-12-29T07:37:36;0.90;;;0.60;;
42478;SDS011;28110;47.080;9.476;2023-12-29T07:40:02;2.97;;;0.73;;
42478;SDS011;28110;47.080;9.476;2023-12-29T07:42:28;5.10;;;0.93;;
42478;SDS011;28110;47.080;9.476;2023-12-29T07:44:54;1.48;;;0.60;;
42478;SDS011;28110;47.080;9.476;2023-12-29T07:47:21;1.33;;;0.80;;
42478;SDS011;28110;47.080;9.476;2023-12-29T07:49:47;4.88;;;1.40;;
42478;SDS011;28110;47.080;9.476;2023-12-29T07:52:12;4.40;;;1.23;;
42478;SDS011;28110;47.080;9.476;2023-12-29T07:54:38;1.20;;;0.60;;
42478;SDS011;28110;47.080;9.476;2023-12-29T07:57:03;0.47;;;0.40;;
42478;SDS011;28110;47.080;9.476;2023-12-29T07:59:29;2.30;;;0.60;;
42478;SDS011;28110;47.080;9.476;2023-12-29T08:01:54;1.27;;;0.40;;
42478;SDS011;28110;47.080;9.476;2023-12-29T08:04:20;1.38;;;0.70;;
42478;SDS011;28110;47.080;9.476;2023-12-29T08:06:45;0.77;;;0.50;;
42478;SDS011;28110;47.080;9.476;2023-12-29T08:09:11;0.83;;;0.60;;
42478;SDS011;28110;47.080;9.476;2023-12-29T08:11:36;0.52;;;0.50;;
42478;SDS011;28110;47.080;9.476;2023-12-29T08:14:02;1.33;;;0.50;;
42478;SDS011;28110;47.080;9.476;2023-12-29T08:16:27;0.60;;;0.50;;
42478;SDS011;28110;47.080;9.476;2023-12-29T08:18:53;1.30;;;0.80;;
42478;SDS011;28110;47.080;9.476;2023-12-29T08:21:19;2.08;;;0.70;;
42478;SDS011;28110;47.080;9.476;2023-12-29T08:23:45;0.70;;;0.50;;
42478;SDS011;28110;47.080;9.476;2023-12-29T08:26:14;0.90;;;0.40;;
42478;SDS011;28110;47.080;9.476;2023-12-29T08:28:40;1.65;;;0.50;;
42478;SDS011;28110;47.080;9.476;2023-12-29T08:31:06;1.67;;;0.63;;
42478;SDS011;28110;47.080;9.476;2023-12-29T08:33:33;2.30;;;0.97;;
42478;SDS011;28110;47.080;9.476;2023-12-29T08:35:58;0.80;;;0.52;;
42478;SDS011;28110;47.080;9.476;2023-12-29T08:38:26;0.90;;;0.55;;
42478;SDS011;28110;47.080;9.476;2023-12-29T08:40:52;1.30;;;0.73;;
42478;SDS011;28110;47.080;9.476;2023-12-29T08:43:17;3.42;;;0.90;;
42478;SDS011;28110;47.080;9.476;2023-12-29T08:45:46;0.98;;;0.50;;
42478;SDS011;28110;47.080;9.476;2023-12-29T08:48:15;1.07;;;0.50;;
42478;SDS011;28110;47.080;9.476;2023-12-29T08:50:41;1.55;;;0.77;;
42478;SDS011;28110;47.080;9.476;2023-12-29T08:53:08;1.27;;;0.68;;
42478;SDS011;28110;47.080;9.476;2023-12-29T08:55:36;1.98;;;0.60;;
42478;SDS011;28110;47.080;9.476;2023-12-29T08:58:02;1.20;;;0.57;;
42478;SDS011;28110;47.080;9.476;2023-12-29T09:00:27;1.40;;;0.50;;
42478;SDS011;28110;47.080;9.476;2023-12-29T09:02:55;1.25;;;0.80;;
42478;SDS011;28110;47.080;9.476;2023-12-29T09:05:21;1.60;;;0.77;;
42478;SDS011;28110;47.080;9.476;2023-12-29T09:07:47;1.25;;;0.70;;
42478;SDS011;28110;47.080;9.476;2023-12-29T09:10:13;1.73;;;0.60;;
42478;SDS011;28110;47.080;9.476;2023-12-29T09:12:39;1.58;;;0.70;;
42478;SDS011;28110;47.080;9.476;2023-12-29T09:15:06;1.42;;;0.80;;
42478;SDS011;28110;47.080;9.476;2023-12-29T09:17:32;2.50;;;0.60;;
42478;SDS011;28110;47.080;9.476;2023-12-29T09:19:58;2.85;;;0.60;;
42478;SDS011;28110;47.080;9.476;2023-12-29T09:22:23;1.02;;;0.55;;
42478;SDS011;28110;47.080;9.476;2023-12-29T09:24:49;4.03;;;1.53;;
42478;SDS011;28110;47.080;9.476;2023-12-29T09:27:14;0.97;;;0.60;;
42478;SDS011;28110;47.080;9.476;2023-12-29T09:29:40;1.52;;;0.60;;
42478;SDS011;28110;47.080;9.476;2023-12-29T09:32:06;1.27;;;0.60;;
42478;SDS011;28110;47.080;9.476;2023-12-29T09:34:32;1.90;;;0.80;;
42478;SDS011;28110;47.080;9.476;2023-12-29T09:36:58;1.70;;;0.80;;
42478;SDS011;28110;47.080;9.476;2023-12-29T09:39:23;1.20;;;0.65;;
42478;SDS011;28110;47.080;9.476;2023-12-29T09:41:51;4.17;;;1.00;;
42478;SDS011;28110;47.080;9.476;2023-12-29T09:44:18;1.48;;;1.00;;
42478;SDS011;28110;47.080;9.476;2023-12-29T09:46:52;2.47;;;0.80;;
42478;SDS011;28110;47.080;9.476;2023-12-29T09:49:19;0.85;;;0.50;;
42478;SDS011;28110;47.080;9.476;2023-12-29T09:51:45;1.87;;;0.60;;
42478;SDS011;28110;47.080;9.476;2023-12-29T09:54:11;0.98;;;0.60;;
42478;SDS011;28110;47.080;9.476;2023-12-29T09:56:38;1.20;;;0.80;;
42478;SDS011;28110;47.080;9.476;2023-12-29T09:59:04;1.02;;;0.60;;
42478;SDS011;28110;47.080;9.476;2023-12-29T10:01:31;2.23;;;0.67;;
42478;SDS011;28110;47.080;9.476;2023-12-29T10:03:58;0.85;;;0.63;;
42478;SDS011;28110;47.080;9.476;2023-12-29T10:06:24;1.13;;;0.73;;
42478;SDS011;28110;47.080;9.476;2023-12-29T10:08:50;2.30;;;0.70;;
42478;SDS011;28110;47.080;9.476;2023-12-29T10:11:18;1.35;;;0.60;;
42478;SDS011;28110;47.080;9.476;2023-12-29T10:13:46;2.08;;;0.60;;
42478;SDS011;28110;47.080;9.476;2023-12-29T10:16:32;1.70;;;0.50;;
42478;SDS011;28110;47.080;9.476;2023-12-29T10:22:05;1.30;;;0.70;;
42478;SDS011;28110;47.080;9.476;2023-12-29T10:25:08;1.20;;;0.57;;
42478;SDS011;28110;47.080;9.476;2023-12-29T10:27:34;1.40;;;0.70;;
42478;SDS011;28110;47.080;9.476;2023-12-29T10:30:00;8.30;;;0.80;;
42478;SDS011;28110;47.080;9.476;2023-12-29T10:32:25;0.93;;;0.50;;
42478;SDS011;28110;47.080;9.476;2023-12-29T10:35:07;1.33;;;0.70;;
42478;SDS011;28110;47.080;9.476;2023-12-29T10:37:36;0.80;;;0.40;;
42478;SDS011;28110;47.080;9.476;2023-12-29T10:40:02;1.30;;;0.57;;
42478;SDS011;28110;47.080;9.476;2023-12-29T10:42:28;0.82;;;0.50;;
42478;SDS011;28110;47.080;9.476;2023-12-29T10:45:07;3.30;;;0.60;;
42478;SDS011;28110;47.080;9.476;2023-12-29T10:47:35;2.00;;;0.70;;
42478;SDS011;28110;47.080;9.476;2023-12-29T10:50:01;1.42;;;0.70;;
42478;SDS011;28110;47.080;9.476;2023-12-29T10:52:28;2.17;;;0.77;;
42478;SDS011;28110;47.080;9.476;2023-12-29T10:55:07;7.00;;;0.70;;
42478;SDS011;28110;47.080;9.476;2023-12-29T10:57:35;1.83;;;0.65;;
42478;SDS011;28110;47.080;9.476;2023-12-29T11:00:01;1.70;;;0.80;;
42478;SDS011;28110;47.080;9.476;2023-12-29T11:02:27;2.13;;;0.80;;
42478;SDS011;28110;47.080;9.476;2023-12-29T11:07:39;1.30;;;0.70;;
42478;SDS011;28110;47.080;9.476;2023-12-29T11:10:07;3.50;;;1.05;;
42478;SDS011;28110;47.080;9.476;2023-12-29T11:12:34;1.50;;;0.80;;
42478;SDS011;28110;47.080;9.476;2023-12-29T11:15:01;1.38;;;0.93;;
42478;SDS011;28110;47.080;9.476;2023-12-29T11:17:29;3.93;;;1.00;;
42478;SDS011;28110;47.080;9.476;2023-12-29T11:19:58;3.35;;;1.10;;
42478;SDS011;28110;47.080;9.476;2023-12-29T11:22:24;5.45;;;0.80;;
42478;SDS011;28110;47.080;9.476;2023-12-29T11:24:54;3.47;;;0.93;;
42478;SDS011;28110;47.080;9.476;2023-12-29T11:27:19;2.37;;;0.90;;
42478;SDS011;28110;47.080;9.476;2023-12-29T11:29:46;2.90;;;1.00;;
42478;SDS011;28110;47.080;9.476;2023-12-29T11:32:14;1.73;;;0.70;;
42478;SDS011;28110;47.080;9.476;2023-12-29T11:34:50;2.70;;;0.88;;
42478;SDS011;28110;47.080;9.476;2023-12-29T11:40:26;2.03;;;0.90;;
42478;SDS011;28110;47.080;9.476;2023-12-29T11:43:02;1.48;;;0.95;;
42478;SDS011;28110;47.080;9.476;2023-12-29T11:45:35;1.73;;;0.90;;
42478;SDS011;28110;47.080;9.476;2023-12-29T11:48:01;1.92;;;1.10;;
42478;SDS011;28110;47.080;9.476;2023-12-29T11:50:37;1.93;;;0.80;;
42478;SDS011;28110;47.080;9.476;2023-12-29T11:53:05;2.67;;;0.85;;
42478;SDS011;28110;47.080;9.476;2023-12-29T11:55:36;2.45;;;0.95;;
42478;SDS011;28110;47.080;9.476;2023-12-29T11:58:23;1.52;;;0.80;;
42478;SDS011;28110;47.080;9.476;2023-12-29T12:00:53;3.05;;;0.80;;
42478;SDS011;28110;47.080;9.476;2023-12-29T12:05:46;2.30;;;0.70;;
42478;SDS011;28110;47.080;9.476;2023-12-29T12:13:55;2.03;;;0.93;;
42478;SDS011;28110;47.080;9.476;2023-12-29T12:19:19;1.10;;;0.80;;
42478;SDS011;28110;47.080;9.476;2023-12-29T12:21:46;4.72;;;1.10;;
42478;SDS011;28110;47.080;9.476;2023-12-29T12:24:15;1.38;;;0.80;;
42478;SDS011;28110;47.080;9.476;2023-12-29T12:26:43;4.65;;;1.20;;
42478;SDS011;28110;47.080;9.476;2023-12-29T12:29:09;4.43;;;1.20;;
42478;SDS011;28110;47.080;9.476;2023-12-29T12:31:35;8.07;;;1.50;;
42478;SDS011;28110;47.080;9.476;2023-12-29T12:34:00;3.03;;;1.50;;
42478;SDS011;28110;47.080;9.476;2023-12-29T12:36:26;5.47;;;1.87;;
42478;SDS011;28110;47.080;9.476;2023-12-29T12:38:58;3.88;;;1.55;;
42478;SDS011;28110;47.080;9.476;2023-12-29T12:41:24;2.63;;;1.43;;
42478;SDS011;28110;47.080;9.476;2023-12-29T12:44:03;2.42;;;1.30;;
42478;SDS011;28110;47.080;9.476;2023-12-29T12:49:12;2.05;;;1.20;;
42478;SDS011;28110;47.080;9.476;2023-12-29T12:51:38;2.80;;;1.35;;
42478;SDS011;28110;47.080;9.476;2023-12-29T12:54:04;2.93;;;1.40;;
42478;SDS011;28110;47.080;9.476;2023-12-29T12:56:31;4.15;;;1.40;;
42478;SDS011;28110;47.080;9.476;2023-12-29T12:58:57;2.28;;;1.25;;
42478;SDS011;28110;47.080;9.476;2023-12-29T13:01:24;2.10;;;1.50;;
42478;SDS011;28110;47.080;9.476;2023-12-29T13:03:51;2.60;;;1.58;;
42478;SDS011;28110;47.080;9.476;2023-12-29T13:06:16;2.70;;;1.57;;
42478;SDS011;28110;47.080;9.476;2023-12-29T13:08:43;2.83;;;1.45;;
42478;SDS011;28110;47.080;9.476;2023-12-29T13:11:09;4.25;;;1.70;;
42478;SDS011;28110;47.080;9.476;2023-12-29T13:13:40;1.88;;;1.40;;
42478;SDS011;28110;47.080;9.476;2023-12-29T13:16:08;3.13;;;1.55;;
42478;SDS011;28110;47.080;9.476;2023-12-29T13:18:34;2.33;;;1.58;;
42478;SDS011;28110;47.080;9.476;2023-12-29T13:21:03;3.05;;;1.60;;
42478;SDS011;28110;47.080;9.476;2023-12-29T13:23:29;2.95;;;1.77;;
42478;SDS011;28110;47.080;9.476;2023-12-29T13:25:56;3.50;;;1.93;;
42478;SDS011;28110;47.080;9.476;2023-12-29T13:28:24;4.78;;;2.10;;
42478;SDS011;28110;47.080;9.476;2023-12-29T13:30:51;5.82;;;2.00;;
42478;SDS011;28110;47.080;9.476;2023-12-29T13:38:53;5.13;;;1.85;;
42478;SDS011;28110;47.080;9.476;2023-12-29T13:41:23;4.85;;;1.95;;
42478;SDS011;28110;47.080;9.476;2023-12-29T13:43:50;3.05;;;1.80;;
42478;SDS011;28110;47.080;9.476;2023-12-29T13:46:18;2.88;;;1.60;;
42478;SDS011;28110;47.080;9.476;2023-12-29T13:48:44;15.20;;;8.18;;
42478;SDS011;28110;47.080;9.476;2023-12-29T13:51:11;5.82;;;2.33;;
42478;SDS011;28110;47.080;9.476;2023-12-29T13:53:37;2.92;;;1.80;;
42478;SDS011;28110;47.080;9.476;2023-12-29T13:56:07;4.70;;;2.15;;
42478;SDS011;28110;47.080;9.476;2023-12-29T13:58:32;5.30;;;2.10;;
42478;SDS011;28110;47.080;9.476;2023-12-29T14:00:58;3.20;;;1.60;;
42478;SDS011;28110;47.080;9.476;2023-12-29T14:03:47;3.90;;;1.53;;
42478;SDS011;28110;47.080;9.476;2023-12-29T14:06:12;4.22;;;1.70;;
42478;SDS011;28110;47.080;9.476;2023-12-29T14:08:52;4.53;;;2.00;;
42478;SDS011;28110;47.080;9.476;2023-12-29T14:11:18;16.30;;;2.70;;
42478;SDS011;28110;47.080;9.476;2023-12-29T14:13:44;5.55;;;1.75;;
42478;SDS011;28110;47.080;9.476;2023-12-29T14:16:12;5.32;;;1.60;;
42478;SDS011;28110;47.080;9.476;2023-12-29T14:21:28;5.93;;;2.10;;
42478;SDS011;28110;47.080;9.476;2023-12-29T14:24:17;4.82;;;1.83;;
42478;SDS011;28110;47.080;9.476;2023-12-29T14:26:42;5.70;;;1.80;;
42478;SDS011;28110;47.080;9.476;2023-12-29T14:29:18;5.30;;;2.22;;
42478;SDS011;28110;47.080;9.476;2023-12-29T14:31:45;4.63;;;1.85;;
42478;SDS011;28110;47.080;9.476;2023-12-29T14:34:12;8.55;;;3.03;;
42478;SDS011;28110;47.080;9.476;2023-12-29T14:36:41;8.25;;;2.80;;
42478;SDS011;28110;47.080;9.476;2023-12-29T14:39:07;6.90;;;2.47;;
42478;SDS011;28110;47.080;9.476;2023-12-29T14:41:36;11.73;;;3.42;;
42478;SDS011;28110;47.080;9.476;2023-12-29T14:44:02;10.50;;;3.10;;
42478;SDS011;28110;47.080;9.476;2023-12-29T14:46:28;8.70;;;3.23;;
42478;SDS011;28110;47.080;9.476;2023-12-29T14:48:55;4.20;;;2.10;;
42478;SDS011;28110;47.080;9.476;2023-12-29T14:51:22;3.58;;;2.15;;
42478;SDS011;28110;47.080;9.476;2023-12-29T14:53:48;3.47;;;2.17;;
42478;SDS011;28110;47.080;9.476;2023-12-29T14:56:15;4.60;;;2.05;;
42478;SDS011;28110;47.080;9.476;2023-12-29T14:58:41;3.63;;;2.00;;
42478;SDS011;28110;47.080;9.476;2023-12-29T15:01:07;5.68;;;2.65;;
42478;SDS011;28110;47.080;9.476;2023-12-29T15:03:33;6.53;;;3.45;;
42478;SDS011;28110;47.080;9.476;2023-12-29T15:06:00;5.57;;;2.20;;
42478;SDS011;28110;47.080;9.476;2023-12-29T15:08:26;3.97;;;2.08;;
42478;SDS011;28110;47.080;9.476;2023-12-29T15:10:56;5.63;;;2.10;;
42478;SDS011;28110;47.080;9.476;2023-12-29T15:13:23;5.10;;;3.08;;
42478;SDS011;28110;47.080;9.476;2023-12-29T15:15:51;5.70;;;3.20;;
42478;SDS011;28110;47.080;9.476;2023-12-29T15:18:16;3.78;;;1.70;;